sensor_id;sensor_type;location;lat;lon;timestamp;P1;durP1;ratioP1;P2;durP2;ratioP2
8044;SDS011;4065;48.754;9.982;2022-08-18T00:01:10;11.70;;;9.63;;
8044;SDS011;4065;48.754;9.982;2022-08-18T00:04:15;11.48;;;9.32;;
8044;SDS011;4065;48.754;9.982;2022-08-18T00:07:17;10.10;;;8.40;;
8044;SDS011;4065;48.754;9.982;2022-08-18T00:10:20;12.05;;;9.20;;
8044;SDS011;4065;48.754;9.982;2022-08-18T00:13:21;11.45;;;9.18;;
8044;SDS011;4065;48.754;9.982;2022-08-18T00:16:23;10.27;;;8.38;;
8044;SDS011;4065;48.754;9.982;2022-08-18T00:19:26;10.63;;;9.25;;
8044;SDS011;4065;48.754;9.982;2022-08-18T00:22:28;10.93;;;8.77;;
8044;SDS011;4065;48.754;9.982;2022-08-18T00:25:30;9.80;;;8.80;;
8044;SDS011;4065;48.754;9.982;2022-08-18T00:28:32;11.15;;;10.05;;
8044;SDS011;4065;48.754;9.982;2022-08-18T00:31:33;9.52;;;8.57;;
8044;SDS011;4065;48.754;9.982;2022-08-18T00:34:37;11.23;;;10.07;;
8044;SDS011;4065;48.754;9.982;2022-08-18T00:37:38;11.77;;;9.23;;
8044;SDS011;4065;48.754;9.982;2022-08-18T00:40:41;10.40;;;9.02;;
8044;SDS011;4065;48.754;9.982;2022-08-18T00:43:46;10.45;;;9.35;;
8044;SDS011;4065;48.754;9.982;2022-08-18T00:46:48;10.57;;;9.30;;
8044;SDS011;4065;48.754;9.982;2022-08-18T00:49:52;10.60;;;9.50;;
8044;SDS011;4065;48.754;9.982;2022-08-18T00:52:55;11.77;;;9.95;;
8044;SDS011;4065;48.754;9.982;2022-08-18T00:56:02;11.50;;;10.30;;
8044;SDS011;4065;48.754;9.982;2022-08-18T00:59:10;11.40;;;10.30;;
8044;SDS011;4065;48.754;9.982;2022-08-18T01:02:17;11.32;;;10.18;;
8044;SDS011;4065;48.754;9.982;2022-08-18T01:05:23;10.38;;;9.38;;
8044;SDS011;4065;48.754;9.982;2022-08-18T01:08:29;11.05;;;10.02;;
8044;SDS011;4065;48.754;9.982;2022-08-18T01:11:31;10.57;;;8.90;;
8044;SDS011;4065;48.754;9.982;2022-08-18T01:14:33;11.27;;;10.18;;
8044;SDS011;4065;48.754;9.982;2022-08-18T01:17:34;10.20;;;9.00;;
8044;SDS011;4065;48.754;9.982;2022-08-18T01:20:56;9.90;;;9.05;;
8044;SDS011;4065;48.754;9.982;2022-08-18T01:24:18;12.43;;;9.85;;
8044;SDS011;4065;48.754;9.982;2022-08-18T01:27:20;12.52;;;9.77;;
8044;SDS011;4065;48.754;9.982;2022-08-18T01:30:21;10.60;;;9.50;;
8044;SDS011;4065;48.754;9.982;2022-08-18T01:33:27;10.40;;;9.30;;
8044;SDS011;4065;48.754;9.982;2022-08-18T01:36:31;11.30;;;9.65;;
8044;SDS011;4065;48.754;9.982;2022-08-18T01:39:37;10.50;;;9.40;;
8044;SDS011;4065;48.754;9.982;2022-08-18T01:42:39;9.80;;;8.77;;
8044;SDS011;4065;48.754;9.982;2022-08-18T01:45:42;9.95;;;8.95;;
8044;SDS011;4065;48.754;9.982;2022-08-18T01:48:44;10.43;;;9.52;;
8044;SDS011;4065;48.754;9.982;2022-08-18T01:51:47;10.52;;;9.20;;
8044;SDS011;4065;48.754;9.982;2022-08-18T01:54:50;10.27;;;9.38;;
8044;SDS011;4065;48.754;9.982;2022-08-18T01:57:53;10.88;;;9.77;;
8044;SDS011;4065;48.754;9.982;2022-08-18T02:00:55;8.93;;;8.13;;
8044;SDS011;4065;48.754;9.982;2022-08-18T02:04:00;10.25;;;9.35;;
8044;SDS011;4065;48.754;9.982;2022-08-18T02:07:03;9.75;;;8.85;;
8044;SDS011;4065;48.754;9.982;2022-08-18T02:10:09;11.15;;;9.93;;
8044;SDS011;4065;48.754;9.982;2022-08-18T02:13:11;12.85;;;11.55;;
8044;SDS011;4065;48.754;9.982;2022-08-18T02:16:13;12.55;;;11.40;;
8044;SDS011;4065;48.754;9.982;2022-08-18T02:19:15;12.93;;;11.82;;
8044;SDS011;4065;48.754;9.982;2022-08-18T02:22:17;12.73;;;11.55;;
8044;SDS011;4065;48.754;9.982;2022-08-18T02:25:21;13.13;;;11.82;;
8044;SDS011;4065;48.754;9.982;2022-08-18T02:28:23;12.45;;;11.18;;
8044;SDS011;4065;48.754;9.982;2022-08-18T02:31:25;12.32;;;11.10;;
8044;SDS011;4065;48.754;9.982;2022-08-18T02:34:26;12.95;;;11.68;;
8044;SDS011;4065;48.754;9.982;2022-08-18T02:37:28;11.30;;;10.20;;
8044;SDS011;4065;48.754;9.982;2022-08-18T02:40:32;12.13;;;10.95;;
8044;SDS011;4065;48.754;9.982;2022-08-18T02:43:34;12.45;;;11.35;;
8044;SDS011;4065;48.754;9.982;2022-08-18T02:46:37;11.13;;;10.02;;
8044;SDS011;4065;48.754;9.982;2022-08-18T02:49:39;12.82;;;11.55;;
8044;SDS011;4065;48.754;9.982;2022-08-18T02:52:41;14.73;;;12.57;;
8044;SDS011;4065;48.754;9.982;2022-08-18T02:55:44;12.68;;;11.38;;
8044;SDS011;4065;48.754;9.982;2022-08-18T02:58:46;12.20;;;10.98;;
8044;SDS011;4065;48.754;9.982;2022-08-18T03:01:49;11.45;;;10.30;;
8044;SDS011;4065;48.754;9.982;2022-08-18T03:04:52;12.20;;;11.10;;
8044;SDS011;4065;48.754;9.982;2022-08-18T03:07:54;14.43;;;11.80;;
8044;SDS011;4065;48.754;9.982;2022-08-18T03:10:57;11.32;;;10.23;;
8044;SDS011;4065;48.754;9.982;2022-08-18T03:13:58;11.27;;;10.10;;
8044;SDS011;4065;48.754;9.982;2022-08-18T03:17:02;11.30;;;10.30;;
8044;SDS011;4065;48.754;9.982;2022-08-18T03:20:05;16.15;;;10.75;;
8044;SDS011;4065;48.754;9.982;2022-08-18T03:23:07;10.80;;;9.88;;
8044;SDS011;4065;48.754;9.982;2022-08-18T03:26:11;13.15;;;11.63;;
8044;SDS011;4065;48.754;9.982;2022-08-18T03:29:14;12.88;;;9.98;;
8044;SDS011;4065;48.754;9.982;2022-08-18T03:32:16;11.30;;;10.30;;
8044;SDS011;4065;48.754;9.982;2022-08-18T03:35:18;9.95;;;9.05;;
8044;SDS011;4065;48.754;9.982;2022-08-18T03:38:21;11.60;;;10.60;;
8044;SDS011;4065;48.754;9.982;2022-08-18T03:41:25;12.88;;;11.77;;
8044;SDS011;4065;48.754;9.982;2022-08-18T03:44:28;13.48;;;12.20;;
8044;SDS011;4065;48.754;9.982;2022-08-18T03:47:31;12.68;;;11.43;;
8044;SDS011;4065;48.754;9.982;2022-08-18T03:50:33;12.35;;;11.25;;
8044;SDS011;4065;48.754;9.982;2022-08-18T03:53:35;11.05;;;10.02;;
8044;SDS011;4065;48.754;9.982;2022-08-18T03:56:39;11.02;;;10.02;;
8044;SDS011;4065;48.754;9.982;2022-08-18T03:59:42;11.82;;;10.70;;
8044;SDS011;4065;48.754;9.982;2022-08-18T04:02:44;11.55;;;10.55;;
8044;SDS011;4065;48.754;9.982;2022-08-18T04:05:45;11.20;;;10.20;;
8044;SDS011;4065;48.754;9.982;2022-08-18T04:08:51;11.27;;;10.07;;
8044;SDS011;4065;48.754;9.982;2022-08-18T04:11:55;11.80;;;10.68;;
8044;SDS011;4065;48.754;9.982;2022-08-18T04:14:59;11.05;;;10.02;;
8044;SDS011;4065;48.754;9.982;2022-08-18T04:18:03;12.07;;;10.98;;
8044;SDS011;4065;48.754;9.982;2022-08-18T04:21:09;11.65;;;10.55;;
8044;SDS011;4065;48.754;9.982;2022-08-18T04:24:14;13.52;;;12.18;;
8044;SDS011;4065;48.754;9.982;2022-08-18T04:27:18;13.32;;;12.02;;
8044;SDS011;4065;48.754;9.982;2022-08-18T04:30:20;11.40;;;10.40;;
8044;SDS011;4065;48.754;9.982;2022-08-18T04:33:22;11.25;;;10.25;;
8044;SDS011;4065;48.754;9.982;2022-08-18T04:36:25;11.35;;;10.20;;
8044;SDS011;4065;48.754;9.982;2022-08-18T04:39:28;11.65;;;10.52;;
8044;SDS011;4065;48.754;9.982;2022-08-18T04:42:32;11.10;;;9.95;;
8044;SDS011;4065;48.754;9.982;2022-08-18T04:45:33;11.52;;;10.48;;
8044;SDS011;4065;48.754;9.982;2022-08-18T04:48:37;9.70;;;8.80;;
8044;SDS011;4065;48.754;9.982;2022-08-18T04:51:40;10.65;;;9.55;;
8044;SDS011;4065;48.754;9.982;2022-08-18T04:55:07;10.27;;;9.23;;
8044;SDS011;4065;48.754;9.982;2022-08-18T04:58:10;11.25;;;10.15;;
8044;SDS011;4065;48.754;9.982;2022-08-18T05:01:11;12.10;;;10.38;;
8044;SDS011;4065;48.754;9.982;2022-08-18T05:04:14;10.32;;;9.43;;
8044;SDS011;4065;48.754;9.982;2022-08-18T05:07:17;12.55;;;11.25;;
8044;SDS011;4065;48.754;9.982;2022-08-18T05:10:21;13.60;;;12.20;;
8044;SDS011;4065;48.754;9.982;2022-08-18T05:13:24;12.65;;;11.48;;
8044;SDS011;4065;48.754;9.982;2022-08-18T05:16:28;13.73;;;12.52;;
8044;SDS011;4065;48.754;9.982;2022-08-18T05:19:35;14.05;;;12.60;;
8044;SDS011;4065;48.754;9.982;2022-08-18T05:22:37;16.92;;;15.15;;
8044;SDS011;4065;48.754;9.982;2022-08-18T05:25:39;14.25;;;12.88;;
8044;SDS011;4065;48.754;9.982;2022-08-18T05:28:43;16.48;;;14.95;;
8044;SDS011;4065;48.754;9.982;2022-08-18T05:31:46;15.35;;;13.75;;
8044;SDS011;4065;48.754;9.982;2022-08-18T05:34:48;15.77;;;14.15;;
8044;SDS011;4065;48.754;9.982;2022-08-18T05:38:01;16.92;;;15.10;;
8044;SDS011;4065;48.754;9.982;2022-08-18T05:41:25;15.52;;;14.05;;
8044;SDS011;4065;48.754;9.982;2022-08-18T05:44:31;15.23;;;13.82;;
8044;SDS011;4065;48.754;9.982;2022-08-18T05:47:33;17.65;;;15.77;;
8044;SDS011;4065;48.754;9.982;2022-08-18T05:50:37;16.17;;;14.57;;
8044;SDS011;4065;48.754;9.982;2022-08-18T05:53:39;16.95;;;15.25;;
8044;SDS011;4065;48.754;9.982;2022-08-18T05:57:01;15.05;;;13.10;;
8044;SDS011;4065;48.754;9.982;2022-08-18T06:00:08;14.82;;;13.32;;
8044;SDS011;4065;48.754;9.982;2022-08-18T06:03:12;17.20;;;15.43;;
8044;SDS011;4065;48.754;9.982;2022-08-18T06:06:17;13.93;;;12.60;;
8044;SDS011;4065;48.754;9.982;2022-08-18T06:09:25;15.00;;;13.32;;
8044;SDS011;4065;48.754;9.982;2022-08-18T06:12:48;14.25;;;12.75;;
8044;SDS011;4065;48.754;9.982;2022-08-18T06:16:03;14.93;;;13.43;;
8044;SDS011;4065;48.754;9.982;2022-08-18T06:19:15;15.95;;;14.45;;
8044;SDS011;4065;48.754;9.982;2022-08-18T06:22:27;17.13;;;14.27;;
8044;SDS011;4065;48.754;9.982;2022-08-18T06:25:32;15.10;;;13.55;;
8044;SDS011;4065;48.754;9.982;2022-08-18T06:28:42;17.52;;;15.23;;
8044;SDS011;4065;48.754;9.982;2022-08-18T06:31:54;13.95;;;12.65;;
8044;SDS011;4065;48.754;9.982;2022-08-18T06:35:05;14.02;;;12.63;;
8044;SDS011;4065;48.754;9.982;2022-08-18T06:38:19;13.63;;;12.00;;
8044;SDS011;4065;48.754;9.982;2022-08-18T06:41:41;14.80;;;13.18;;
8044;SDS011;4065;48.754;9.982;2022-08-18T06:44:45;12.75;;;11.55;;
8044;SDS011;4065;48.754;9.982;2022-08-18T06:47:55;13.35;;;11.95;;
8044;SDS011;4065;48.754;9.982;2022-08-18T06:51:00;13.02;;;11.77;;
8044;SDS011;4065;48.754;9.982;2022-08-18T06:54:04;13.43;;;11.05;;
8044;SDS011;4065;48.754;9.982;2022-08-18T06:57:08;13.00;;;11.68;;
8044;SDS011;4065;48.754;9.982;2022-08-18T07:00:25;14.35;;;12.85;;
8044;SDS011;4065;48.754;9.982;2022-08-18T07:03:42;14.02;;;12.52;;
8044;SDS011;4065;48.754;9.982;2022-08-18T07:06:46;12.68;;;11.38;;
8044;SDS011;4065;48.754;9.982;2022-08-18T07:09:48;13.07;;;11.77;;
8044;SDS011;4065;48.754;9.982;2022-08-18T07:12:50;12.23;;;10.23;;
8044;SDS011;4065;48.754;9.982;2022-08-18T07:15:52;13.63;;;8.75;;
8044;SDS011;4065;48.754;9.982;2022-08-18T07:19:04;10.10;;;8.45;;
8044;SDS011;4065;48.754;9.982;2022-08-18T07:22:08;9.70;;;8.85;;
8044;SDS011;4065;48.754;9.982;2022-08-18T07:25:11;9.65;;;8.70;;
8044;SDS011;4065;48.754;9.982;2022-08-18T07:28:26;8.50;;;7.60;;
8044;SDS011;4065;48.754;9.982;2022-08-18T07:31:34;8.50;;;7.70;;
8044;SDS011;4065;48.754;9.982;2022-08-18T07:34:40;8.02;;;7.22;;
8044;SDS011;4065;48.754;9.982;2022-08-18T07:37:45;8.52;;;7.55;;
8044;SDS011;4065;48.754;9.982;2022-08-18T07:40:52;8.88;;;7.40;;
8044;SDS011;4065;48.754;9.982;2022-08-18T07:44:10;8.18;;;7.38;;
8044;SDS011;4065;48.754;9.982;2022-08-18T07:47:19;8.52;;;6.65;;
8044;SDS011;4065;48.754;9.982;2022-08-18T07:50:24;8.27;;;6.55;;
8044;SDS011;4065;48.754;9.982;2022-08-18T07:53:29;7.65;;;6.85;;
8044;SDS011;4065;48.754;9.982;2022-08-18T07:56:36;6.85;;;6.25;;
8044;SDS011;4065;48.754;9.982;2022-08-18T07:59:45;7.13;;;6.47;;
8044;SDS011;4065;48.754;9.982;2022-08-18T08:02:51;7.57;;;6.32;;
8044;SDS011;4065;48.754;9.982;2022-08-18T08:06:04;7.22;;;6.53;;
8044;SDS011;4065;48.754;9.982;2022-08-18T08:09:11;6.63;;;6.03;;
8044;SDS011;4065;48.754;9.982;2022-08-18T08:12:20;6.30;;;5.70;;
8044;SDS011;4065;48.754;9.982;2022-08-18T08:15:31;7.65;;;6.90;;
8044;SDS011;4065;48.754;9.982;2022-08-18T08:18:40;6.32;;;5.68;;
8044;SDS011;4065;48.754;9.982;2022-08-18T08:21:47;6.40;;;5.80;;
8044;SDS011;4065;48.754;9.982;2022-08-18T08:25:05;6.35;;;5.85;;
8044;SDS011;4065;48.754;9.982;2022-08-18T08:28:16;7.20;;;6.45;;
8044;SDS011;4065;48.754;9.982;2022-08-18T08:31:30;7.10;;;6.40;;
8044;SDS011;4065;48.754;9.982;2022-08-18T08:34:38;7.90;;;6.55;;
8044;SDS011;4065;48.754;9.982;2022-08-18T08:37:46;8.00;;;7.00;;
8044;SDS011;4065;48.754;9.982;2022-08-18T08:40:52;6.88;;;6.18;;
8044;SDS011;4065;48.754;9.982;2022-08-18T08:44:05;7.45;;;6.75;;
8044;SDS011;4065;48.754;9.982;2022-08-18T08:47:12;7.75;;;6.75;;
8044;SDS011;4065;48.754;9.982;2022-08-18T08:50:17;7.20;;;6.50;;
8044;SDS011;4065;48.754;9.982;2022-08-18T08:53:28;7.82;;;6.43;;
8044;SDS011;4065;48.754;9.982;2022-08-18T08:56:34;8.32;;;7.45;;
8044;SDS011;4065;48.754;9.982;2022-08-18T08:59:39;9.15;;;7.60;;
8044;SDS011;4065;48.754;9.982;2022-08-18T09:02:48;8.40;;;7.60;;
8044;SDS011;4065;48.754;9.982;2022-08-18T09:06:01;9.23;;;8.32;;
8044;SDS011;4065;48.754;9.982;2022-08-18T09:09:17;8.38;;;7.53;;
8044;SDS011;4065;48.754;9.982;2022-08-18T09:12:27;9.77;;;8.68;;
8044;SDS011;4065;48.754;9.982;2022-08-18T09:15:42;11.43;;;10.30;;
8044;SDS011;4065;48.754;9.982;2022-08-18T09:18:55;10.55;;;9.55;;
8044;SDS011;4065;48.754;9.982;2022-08-18T09:22:09;11.73;;;10.43;;
8044;SDS011;4065;48.754;9.982;2022-08-18T09:25:33;11.32;;;10.07;;
8044;SDS011;4065;48.754;9.982;2022-08-18T09:28:51;12.10;;;10.40;;
8044;SDS011;4065;48.754;9.982;2022-08-18T09:35:40;10.77;;;9.80;;
8044;SDS011;4065;48.754;9.982;2022-08-18T09:38:48;11.50;;;10.40;;
8044;SDS011;4065;48.754;9.982;2022-08-18T09:42:12;12.52;;;11.32;;
8044;SDS011;4065;48.754;9.982;2022-08-18T09:48:41;14.38;;;12.75;;
8044;SDS011;4065;48.754;9.982;2022-08-18T09:51:45;13.82;;;12.55;;
8044;SDS011;4065;48.754;9.982;2022-08-18T09:54:47;14.45;;;12.65;;
8044;SDS011;4065;48.754;9.982;2022-08-18T10:01:30;12.68;;;11.38;;
8044;SDS011;4065;48.754;9.982;2022-08-18T10:04:36;12.25;;;11.05;;
8044;SDS011;4065;48.754;9.982;2022-08-18T10:07:48;13.07;;;11.75;;
8044;SDS011;4065;48.754;9.982;2022-08-18T10:10:53;13.20;;;11.80;;
8044;SDS011;4065;48.754;9.982;2022-08-18T10:14:06;13.27;;;11.88;;
8044;SDS011;4065;48.754;9.982;2022-08-18T10:17:21;14.93;;;13.45;;
8044;SDS011;4065;48.754;9.982;2022-08-18T10:20:36;15.68;;;12.90;;
8044;SDS011;4065;48.754;9.982;2022-08-18T10:23:54;13.50;;;12.20;;
8044;SDS011;4065;48.754;9.982;2022-08-18T10:26:58;13.10;;;11.60;;
8044;SDS011;4065;48.754;9.982;2022-08-18T10:30:03;14.10;;;12.63;;
8044;SDS011;4065;48.754;9.982;2022-08-18T10:33:08;12.80;;;11.60;;
8044;SDS011;4065;48.754;9.982;2022-08-18T10:36:11;13.50;;;12.18;;
8044;SDS011;4065;48.754;9.982;2022-08-18T10:39:49;15.15;;;13.75;;
8044;SDS011;4065;48.754;9.982;2022-08-18T10:42:52;16.10;;;12.77;;
8044;SDS011;4065;48.754;9.982;2022-08-18T10:46:03;16.48;;;13.98;;
8044;SDS011;4065;48.754;9.982;2022-08-18T10:49:15;15.65;;;14.15;;
8044;SDS011;4065;48.754;9.982;2022-08-18T10:52:27;12.40;;;11.30;;
8044;SDS011;4065;48.754;9.982;2022-08-18T10:55:43;12.35;;;11.25;;
8044;SDS011;4065;48.754;9.982;2022-08-18T10:58:52;16.02;;;14.32;;
8044;SDS011;4065;48.754;9.982;2022-08-18T11:02:10;15.70;;;14.07;;
8044;SDS011;4065;48.754;9.982;2022-08-18T11:05:17;14.55;;;13.05;;
8044;SDS011;4065;48.754;9.982;2022-08-18T11:08:23;16.35;;;14.73;;
8044;SDS011;4065;48.754;9.982;2022-08-18T11:11:26;14.15;;;12.80;;
8044;SDS011;4065;48.754;9.982;2022-08-18T11:14:50;15.95;;;14.38;;
8044;SDS011;4065;48.754;9.982;2022-08-18T11:18:18;15.18;;;13.70;;
8044;SDS011;4065;48.754;9.982;2022-08-18T11:21:36;15.35;;;12.93;;
8044;SDS011;4065;48.754;9.982;2022-08-18T11:24:42;13.10;;;11.90;;
8044;SDS011;4065;48.754;9.982;2022-08-18T11:27:46;13.35;;;12.05;;
8044;SDS011;4065;48.754;9.982;2022-08-18T11:30:49;14.90;;;13.38;;
8044;SDS011;4065;48.754;9.982;2022-08-18T11:33:54;14.50;;;13.00;;
8044;SDS011;4065;48.754;9.982;2022-08-18T11:36:56;15.15;;;13.60;;
8044;SDS011;4065;48.754;9.982;2022-08-18T11:40:00;14.13;;;12.88;;
8044;SDS011;4065;48.754;9.982;2022-08-18T11:43:09;14.48;;;12.95;;
8044;SDS011;4065;48.754;9.982;2022-08-18T11:46:20;13.75;;;12.45;;
8044;SDS011;4065;48.754;9.982;2022-08-18T11:49:31;15.15;;;13.65;;
8044;SDS011;4065;48.754;9.982;2022-08-18T11:52:45;14.60;;;13.10;;
8044;SDS011;4065;48.754;9.982;2022-08-18T11:56:01;13.55;;;12.30;;
8044;SDS011;4065;48.754;9.982;2022-08-18T11:59:05;13.48;;;11.68;;
8044;SDS011;4065;48.754;9.982;2022-08-18T12:02:08;13.35;;;12.05;;
8044;SDS011;4065;48.754;9.982;2022-08-18T12:05:12;14.80;;;13.35;;
8044;SDS011;4065;48.754;9.982;2022-08-18T12:08:17;15.15;;;13.75;;
8044;SDS011;4065;48.754;9.982;2022-08-18T12:11:24;15.02;;;13.55;;
8044;SDS011;4065;48.754;9.982;2022-08-18T12:14:28;14.32;;;11.90;;
8044;SDS011;4065;48.754;9.982;2022-08-18T12:17:32;14.48;;;13.07;;
8044;SDS011;4065;48.754;9.982;2022-08-18T12:20:37;15.18;;;13.75;;
8044;SDS011;4065;48.754;9.982;2022-08-18T12:23:42;14.18;;;12.77;;
8044;SDS011;4065;48.754;9.982;2022-08-18T12:26:44;14.55;;;12.32;;
8044;SDS011;4065;48.754;9.982;2022-08-18T12:29:46;15.88;;;13.45;;
8044;SDS011;4065;48.754;9.982;2022-08-18T12:32:48;13.95;;;12.52;;
8044;SDS011;4065;48.754;9.982;2022-08-18T12:35:51;12.57;;;11.48;;
8044;SDS011;4065;48.754;9.982;2022-08-18T12:38:53;12.02;;;10.48;;
8044;SDS011;4065;48.754;9.982;2022-08-18T12:41:54;13.70;;;12.23;;
8044;SDS011;4065;48.754;9.982;2022-08-18T12:44:56;13.50;;;11.88;;
8044;SDS011;4065;48.754;9.982;2022-08-18T12:47:58;12.82;;;11.55;;
8044;SDS011;4065;48.754;9.982;2022-08-18T12:51:03;13.65;;;12.20;;
8044;SDS011;4065;48.754;9.982;2022-08-18T12:54:05;12.95;;;11.10;;
8044;SDS011;4065;48.754;9.982;2022-08-18T12:57:07;13.00;;;11.45;;
8044;SDS011;4065;48.754;9.982;2022-08-18T13:00:11;11.45;;;10.25;;
8044;SDS011;4065;48.754;9.982;2022-08-18T13:03:13;10.77;;;9.77;;
8044;SDS011;4065;48.754;9.982;2022-08-18T13:06:17;13.10;;;11.73;;
8044;SDS011;4065;48.754;9.982;2022-08-18T13:09:19;11.23;;;10.23;;
8044;SDS011;4065;48.754;9.982;2022-08-18T13:12:22;9.57;;;8.52;;
8044;SDS011;4065;48.754;9.982;2022-08-18T13:15:24;12.80;;;11.50;;
8044;SDS011;4065;48.754;9.982;2022-08-18T13:18:27;12.23;;;11.02;;
8044;SDS011;4065;48.754;9.982;2022-08-18T13:21:30;10.90;;;9.82;;
8044;SDS011;4065;48.754;9.982;2022-08-18T13:24:32;12.20;;;11.00;;
8044;SDS011;4065;48.754;9.982;2022-08-18T13:27:35;12.75;;;11.65;;
8044;SDS011;4065;48.754;9.982;2022-08-18T13:30:37;11.65;;;10.13;;
8044;SDS011;4065;48.754;9.982;2022-08-18T13:33:41;11.75;;;10.65;;
8044;SDS011;4065;48.754;9.982;2022-08-18T13:36:44;9.70;;;8.82;;
8044;SDS011;4065;48.754;9.982;2022-08-18T13:39:48;9.13;;;8.32;;
8044;SDS011;4065;48.754;9.982;2022-08-18T13:42:50;11.63;;;9.48;;
8044;SDS011;4065;48.754;9.982;2022-08-18T13:45:52;10.70;;;9.60;;
8044;SDS011;4065;48.754;9.982;2022-08-18T13:48:54;10.93;;;9.60;;
8044;SDS011;4065;48.754;9.982;2022-08-18T13:51:58;10.70;;;9.70;;
8044;SDS011;4065;48.754;9.982;2022-08-18T13:55:00;10.48;;;9.15;;
8044;SDS011;4065;48.754;9.982;2022-08-18T13:58:03;11.15;;;10.05;;
8044;SDS011;4065;48.754;9.982;2022-08-18T14:01:05;12.57;;;10.63;;
8044;SDS011;4065;48.754;9.982;2022-08-18T14:04:10;10.38;;;9.43;;
8044;SDS011;4065;48.754;9.982;2022-08-18T14:07:14;9.40;;;8.43;;
8044;SDS011;4065;48.754;9.982;2022-08-18T14:10:16;9.52;;;8.63;;
8044;SDS011;4065;48.754;9.982;2022-08-18T14:13:18;10.20;;;9.23;;
8044;SDS011;4065;48.754;9.982;2022-08-18T14:16:20;10.68;;;9.68;;
8044;SDS011;4065;48.754;9.982;2022-08-18T14:19:22;11.10;;;10.10;;
8044;SDS011;4065;48.754;9.982;2022-08-18T14:22:43;12.57;;;10.88;;
8044;SDS011;4065;48.754;9.982;2022-08-18T14:26:02;12.23;;;9.38;;
8044;SDS011;4065;48.754;9.982;2022-08-18T14:29:21;11.00;;;9.85;;
8044;SDS011;4065;48.754;9.982;2022-08-18T14:32:24;9.60;;;8.18;;
8044;SDS011;4065;48.754;9.982;2022-08-18T14:35:26;9.85;;;8.82;;
8044;SDS011;4065;48.754;9.982;2022-08-18T14:38:30;9.93;;;8.98;;
8044;SDS011;4065;48.754;9.982;2022-08-18T14:41:31;10.07;;;9.15;;
8044;SDS011;4065;48.754;9.982;2022-08-18T14:44:34;9.68;;;8.65;;
8044;SDS011;4065;48.754;9.982;2022-08-18T14:47:36;11.57;;;8.82;;
8044;SDS011;4065;48.754;9.982;2022-08-18T14:50:38;11.48;;;10.18;;
8044;SDS011;4065;48.754;9.982;2022-08-18T14:53:42;9.38;;;8.57;;
8044;SDS011;4065;48.754;9.982;2022-08-18T14:56:44;9.30;;;8.30;;
8044;SDS011;4065;48.754;9.982;2022-08-18T14:59:46;11.27;;;9.80;;
8044;SDS011;4065;48.754;9.982;2022-08-18T15:02:48;9.02;;;8.23;;
8044;SDS011;4065;48.754;9.982;2022-08-18T15:05:50;12.98;;;9.65;;
8044;SDS011;4065;48.754;9.982;2022-08-18T15:08:56;10.20;;;9.20;;
8044;SDS011;4065;48.754;9.982;2022-08-18T15:11:58;9.35;;;8.45;;
8044;SDS011;4065;48.754;9.982;2022-08-18T15:15:00;9.85;;;8.82;;
8044;SDS011;4065;48.754;9.982;2022-08-18T15:18:02;9.18;;;8.27;;
8044;SDS011;4065;48.754;9.982;2022-08-18T15:21:04;11.77;;;9.48;;
8044;SDS011;4065;48.754;9.982;2022-08-18T15:24:25;9.88;;;8.82;;
8044;SDS011;4065;48.754;9.982;2022-08-18T15:27:44;9.43;;;8.48;;
8044;SDS011;4065;48.754;9.982;2022-08-18T15:30:47;10.98;;;9.73;;
8044;SDS011;4065;48.754;9.982;2022-08-18T15:33:49;9.48;;;8.48;;
8044;SDS011;4065;48.754;9.982;2022-08-18T15:36:51;9.27;;;8.38;;
8044;SDS011;4065;48.754;9.982;2022-08-18T15:40:06;13.20;;;9.80;;
8044;SDS011;4065;48.754;9.982;2022-08-18T15:43:10;10.10;;;9.13;;
8044;SDS011;4065;48.754;9.982;2022-08-18T15:46:12;9.93;;;8.93;;
8044;SDS011;4065;48.754;9.982;2022-08-18T15:49:14;9.30;;;8.32;;
8044;SDS011;4065;48.754;9.982;2022-08-18T15:52:16;9.30;;;8.43;;
8044;SDS011;4065;48.754;9.982;2022-08-18T15:55:20;8.90;;;8.00;;
8044;SDS011;4065;48.754;9.982;2022-08-18T15:58:22;9.93;;;8.15;;
8044;SDS011;4065;48.754;9.982;2022-08-18T16:01:24;9.13;;;8.32;;
8044;SDS011;4065;48.754;9.982;2022-08-18T16:04:26;8.88;;;8.02;;
8044;SDS011;4065;48.754;9.982;2022-08-18T16:07:28;10.52;;;7.97;;
8044;SDS011;4065;48.754;9.982;2022-08-18T16:10:32;8.88;;;7.97;;
8044;SDS011;4065;48.754;9.982;2022-08-18T16:13:35;9.98;;;8.48;;
8044;SDS011;4065;48.754;9.982;2022-08-18T16:16:40;8.98;;;8.00;;
8044;SDS011;4065;48.754;9.982;2022-08-18T16:19:41;11.07;;;8.68;;
8044;SDS011;4065;48.754;9.982;2022-08-18T16:22:43;9.32;;;8.50;;
8044;SDS011;4065;48.754;9.982;2022-08-18T16:25:47;9.05;;;8.25;;
8044;SDS011;4065;48.754;9.982;2022-08-18T16:28:49;9.90;;;8.95;;
8044;SDS011;4065;48.754;9.982;2022-08-18T16:31:52;8.93;;;7.82;;
8044;SDS011;4065;48.754;9.982;2022-08-18T16:34:53;9.25;;;8.27;;
8044;SDS011;4065;48.754;9.982;2022-08-18T16:37:55;11.32;;;9.57;;
8044;SDS011;4065;48.754;9.982;2022-08-18T16:41:05;8.90;;;8.10;;
8044;SDS011;4065;48.754;9.982;2022-08-18T16:44:08;11.13;;;9.20;;
8044;SDS011;4065;48.754;9.982;2022-08-18T16:47:10;10.20;;;8.85;;
8044;SDS011;4065;48.754;9.982;2022-08-18T16:50:13;10.43;;;9.32;;
8044;SDS011;4065;48.754;9.982;2022-08-18T16:53:17;9.48;;;8.57;;
8044;SDS011;4065;48.754;9.982;2022-08-18T16:56:22;11.73;;;9.05;;
8044;SDS011;4065;48.754;9.982;2022-08-18T16:59:25;11.95;;;9.20;;
8044;SDS011;4065;48.754;9.982;2022-08-18T17:02:44;10.63;;;9.25;;
8044;SDS011;4065;48.754;9.982;2022-08-18T17:06:04;10.80;;;9.80;;
8044;SDS011;4065;48.754;9.982;2022-08-18T17:09:08;10.73;;;9.73;;
8044;SDS011;4065;48.754;9.982;2022-08-18T17:12:11;10.93;;;9.60;;
8044;SDS011;4065;48.754;9.982;2022-08-18T17:15:13;9.77;;;8.88;;
8044;SDS011;4065;48.754;9.982;2022-08-18T17:18:15;10.18;;;9.18;;
8044;SDS011;4065;48.754;9.982;2022-08-18T17:21:20;11.13;;;9.02;;
8044;SDS011;4065;48.754;9.982;2022-08-18T17:24:24;9.80;;;8.90;;
8044;SDS011;4065;48.754;9.982;2022-08-18T17:27:30;12.70;;;9.18;;
8044;SDS011;4065;48.754;9.982;2022-08-18T17:30:34;9.10;;;8.30;;
8044;SDS011;4065;48.754;9.982;2022-08-18T17:33:38;9.88;;;8.98;;
8044;SDS011;4065;48.754;9.982;2022-08-18T17:36:42;9.88;;;8.48;;
8044;SDS011;4065;48.754;9.982;2022-08-18T17:39:50;10.15;;;9.15;;
8044;SDS011;4065;48.754;9.982;2022-08-18T17:43:00;11.00;;;8.70;;
8044;SDS011;4065;48.754;9.982;2022-08-18T17:46:04;9.75;;;8.75;;
8044;SDS011;4065;48.754;9.982;2022-08-18T17:49:09;9.60;;;8.50;;
8044;SDS011;4065;48.754;9.982;2022-08-18T17:52:13;10.05;;;9.02;;
8044;SDS011;4065;48.754;9.982;2022-08-18T17:55:19;12.45;;;9.85;;
8044;SDS011;4065;48.754;9.982;2022-08-18T17:58:26;9.43;;;8.52;;
8044;SDS011;4065;48.754;9.982;2022-08-18T18:01:33;9.77;;;8.80;;
8044;SDS011;4065;48.754;9.982;2022-08-18T18:04:35;10.35;;;8.80;;
8044;SDS011;4065;48.754;9.982;2022-08-18T18:07:38;10.00;;;8.98;;
8044;SDS011;4065;48.754;9.982;2022-08-18T18:10:53;9.55;;;8.70;;
8044;SDS011;4065;48.754;9.982;2022-08-18T18:14:21;10.88;;;8.60;;
8044;SDS011;4065;48.754;9.982;2022-08-18T18:17:26;9.60;;;8.70;;
8044;SDS011;4065;48.754;9.982;2022-08-18T18:20:30;9.38;;;8.48;;
8044;SDS011;4065;48.754;9.982;2022-08-18T18:23:41;10.27;;;8.93;;
8044;SDS011;4065;48.754;9.982;2022-08-18T18:26:45;11.70;;;8.77;;
8044;SDS011;4065;48.754;9.982;2022-08-18T18:29:52;9.88;;;8.88;;
8044;SDS011;4065;48.754;9.982;2022-08-18T18:32:56;10.55;;;8.50;;
8044;SDS011;4065;48.754;9.982;2022-08-18T18:36:02;9.85;;;8.85;;
8044;SDS011;4065;48.754;9.982;2022-08-18T18:39:08;9.77;;;8.75;;
8044;SDS011;4065;48.754;9.982;2022-08-18T18:42:14;10.00;;;9.00;;
8044;SDS011;4065;48.754;9.982;2022-08-18T18:45:21;10.23;;;9.30;;
8044;SDS011;4065;48.754;9.982;2022-08-18T18:48:26;10.20;;;9.30;;
8044;SDS011;4065;48.754;9.982;2022-08-18T18:51:33;10.82;;;9.70;;
8044;SDS011;4065;48.754;9.982;2022-08-18T18:54:43;12.30;;;9.68;;
8044;SDS011;4065;48.754;9.982;2022-08-18T18:57:50;9.95;;;9.05;;
8044;SDS011;4065;48.754;9.982;2022-08-18T19:00:59;10.15;;;9.10;;
8044;SDS011;4065;48.754;9.982;2022-08-18T19:04:03;10.23;;;9.20;;